Time;durP1;ratioP1;P1;durP2;ratioP2;P2;SDS_P1;SDS_P2;PMS_P1;PMS_P2;Temp;Humidity;BMP_temperature;BMP_pressure;BME280_temperature;BME280_humidity;BME280_pressure;Samples;Min_cycle;Max_cycle;Signal;HPM_P1;HPM_P2
2021/11/22 00:01:02;;;;;;;0.10;0.10;;;;;;;8.47;65.17;102195.75;4925106;29;20047;-94
2021/11/22 00:03:30;;;;;;;0.10;0.10;;;;;;;8.39;65.37;102193.88;4936393;29;20040;-95
2021/11/22 00:05:57;;;;;;;0.10;0.10;;;;;;;8.38;64.90;102194.75;4937242;29;20034;-95
2021/11/22 00:08:23;;;;;;;0.10;0.10;;;;;;;8.37;64.70;102193.00;4938187;29;20053;-96
2021/11/22 00:10:49;;;;;;;0.20;0.20;;;;;;;8.29;64.80;102199.94;4937191;29;20034;-94
2021/11/22 00:13:15;;;;;;;0.65;0.43;;;;;;;8.29;64.76;102205.22;4934056;29;20059;-95
2021/11/22 00:15:42;;;;;;;0.10;0.10;;;;;;;8.26;65.03;102207.81;4935075;29;20462;-96
2021/11/22 00:18:08;;;;;;;0.10;0.10;;;;;;;8.22;64.72;102209.56;4932289;29;20020;-94
2021/11/22 00:20:35;;;;;;;0.10;0.10;;;;;;;8.21;65.17;102206.88;4932740;29;20046;-95
2021/11/22 00:23:04;;;;;;;0.10;0.10;;;;;;;8.16;65.37;102213.88;4931390;29;20034;-94
2021/11/22 00:25:31;;;;;;;0.10;0.10;;;;;;;8.10;65.26;102215.56;4932083;28;20433;-96
2021/11/22 00:27:57;;;;;;;0.10;0.10;;;;;;;8.09;65.78;102229.63;4931868;29;20555;-96
2021/11/22 00:30:23;;;;;;;0.10;0.10;;;;;;;8.07;65.31;102231.38;4932862;29;20073;-95
2021/11/22 00:32:50;;;;;;;0.10;0.10;;;;;;;8.05;65.83;102237.47;4930805;29;20059;-96
2021/11/22 00:35:16;;;;;;;0.10;0.10;;;;;;;8.07;65.44;102236.66;4933996;28;20074;-95
2021/11/22 00:37:45;;;;;;;0.05;0.05;;;;;;;8.03;65.10;102240.09;4925315;29;20260;-94
2021/11/22 00:40:13;;;;;;;0.10;0.10;;;;;;;7.98;65.60;102239.16;4929373;29;20063;-92
2021/11/22 00:42:44;;;;;;;0.10;0.10;;;;;;;7.99;65.60;102251.50;4929112;29;20071;-96
2021/11/22 00:45:10;;;;;;;0.10;0.10;;;;;;;7.97;65.91;102253.22;4932129;29;20086;-94
2021/11/22 00:47:37;;;;;;;0.20;0.20;;;;;;;7.64;66.49;102262.44;4932155;29;20042;-93
2021/11/22 00:50:05;;;;;;;0.10;0.10;;;;;;;7.55;67.13;102268.47;4927206;29;20076;-95
2021/11/22 00:52:31;;;;;;;0.10;0.10;;;;;;;7.52;67.39;102267.53;4928664;29;20096;-96
2021/11/22 00:54:58;;;;;;;0.17;0.17;;;;;;;7.52;67.22;102272.81;4928851;29;20067;-96
2021/11/22 00:57:24;;;;;;;0.98;0.98;;;;;;;7.51;66.96;102271.91;4938520;28;20038;-95
2021/11/22 00:59:50;;;;;;;0.10;0.10;;;;;;;7.46;67.50;102276.22;4935082;29;20030;-94
2021/11/22 01:02:17;;;;;;;0.10;0.10;;;;;;;7.42;67.37;102277.91;4931343;29;20035;-95
2021/11/22 01:04:43;;;;;;;0.10;0.10;;;;;;;7.38;67.51;102278.75;4923115;29;20119;-95
2021/11/22 01:07:12;;;;;;;0.10;0.10;;;;;;;7.37;67.45;102284.00;4929106;29;20128;-91
2021/11/22 01:09:38;;;;;;;0.10;0.10;;;;;;;7.35;67.19;102277.78;4931660;29;20036;-95
2021/11/22 01:12:25;;;;;;;0.10;0.10;;;;;;;7.32;67.52;102285.66;4938112;29;20039;-95
2021/11/22 01:14:51;;;;;;;0.40;0.40;;;;;;;7.28;67.30;102296.16;4930423;29;20372;-96
2021/11/22 01:17:19;;;;;;;0.10;0.10;;;;;;;7.24;68.04;102288.16;4941930;29;20382;-88
2021/11/22 01:19:51;;;;;;;0.10;0.10;;;;;;;7.27;67.50;102298.78;4940824;28;20095;-95
2021/11/22 01:22:22;;;;;;;0.10;0.10;;;;;;;7.30;67.70;102298.81;4936493;29;20082;-95
2021/11/22 01:24:49;;;;;;;0.10;0.10;;;;;;;7.25;68.11;102292.56;4926264;29;20042;-95
2021/11/22 01:27:15;;;;;;;0.10;0.10;;;;;;;7.24;68.14;102304.88;4929831;29;20031;-95
2021/11/22 01:29:41;;;;;;;0.10;0.10;;;;;;;7.20;68.12;102303.06;4932455;29;20075;-94
2021/11/22 01:32:08;;;;;;;3.60;0.77;;;;;;;7.22;67.98;102318.91;4928588;29;20101;-96
2021/11/22 01:34:34;;;;;;;0.10;0.10;;;;;;;7.21;68.04;102318.00;4927520;29;20062;-95
2021/11/22 01:37:01;;;;;;;0.10;0.10;;;;;;;7.21;68.00;102325.91;4928647;29;20040;-94
2021/11/22 01:39:27;;;;;;;0.10;0.10;;;;;;;7.21;67.99;102325.03;4931155;29;20032;-93
2021/11/22 01:41:53;;;;;;;0.03;0.03;;;;;;;7.18;68.25;102332.84;4922929;29;20036;-96
2021/11/22 01:44:20;;;;;;;0.10;0.10;;;;;;;7.17;68.22;102339.03;4928977;29;20119;-94
2021/11/22 01:46:48;;;;;;;0.10;0.10;;;;;;;7.15;68.45;102343.38;4922014;29;20388;-95
2021/11/22 01:49:16;;;;;;;0.10;0.10;;;;;;;7.12;69.03;102334.53;4923465;29;20388;-95
2021/11/22 01:51:42;;;;;;;0.10;0.10;;;;;;;7.17;68.57;102339.03;4934315;29;20407;-95
2021/11/22 01:54:09;;;;;;;0.10;0.10;;;;;;;7.21;68.18;102347.00;4931826;29;20468;-95
2021/11/22 01:56:35;;;;;;;0.10;0.10;;;;;;;7.14;69.04;102350.41;4927052;29;20509;-96
2021/11/22 01:59:01;;;;;;;0.20;0.20;;;;;;;7.19;68.63;102347.81;4922487;29;20482;-96
2021/11/22 02:01:27;;;;;;;0.10;0.10;;;;;;;7.22;68.46;102345.25;4927269;29;20040;-95
2021/11/22 02:03:54;;;;;;;0.10;0.10;;;;;;;7.21;68.83;102351.38;4934546;29;20032;-95
2021/11/22 02:06:20;;;;;;;0.10;0.10;;;;;;;7.22;68.81;102350.53;4931227;29;20090;-96
2021/11/22 02:08:48;;;;;;;0.10;0.10;;;;;;;7.22;68.77;102353.16;4934186;29;20040;-96
2021/11/22 02:11:14;;;;;;;0.10;0.10;;;;;;;7.22;68.71;102347.91;4930482;29;20373;-96
2021/11/22 02:13:42;;;;;;;0.20;0.20;;;;;;;7.20;68.47;102346.97;4924705;29;20038;-95
2021/11/22 02:16:09;;;;;;;0.10;0.10;;;;;;;7.19;68.21;102353.09;4931294;29;20042;-96
2021/11/22 02:18:35;;;;;;;0.10;0.10;;;;;;;7.17;68.57;102354.84;4927241;29;20036;-96
2021/11/22 02:21:01;;;;;;;0.10;0.10;;;;;;;7.19;68.53;102355.72;4933838;29;20126;-95
2021/11/22 02:23:28;;;;;;;0.10;0.10;;;;;;;7.15;69.38;102356.53;4927957;29;20527;-96
2021/11/22 02:25:54;;;;;;;0.10;0.10;;;;;;;7.20;68.80;102360.16;4926363;28;20610;-96
2021/11/22 02:28:21;;;;;;;0.10;0.10;;;;;;;7.18;69.32;102361.84;4930358;29;20080;-95
2021/11/22 02:30:49;;;;;;;0.10;0.10;;;;;;;7.19;69.19;102369.81;4930570;29;20032;-95
2021/11/22 02:33:19;;;;;;;0.10;0.10;;;;;;;7.24;68.92;102373.41;4926403;29;20201;-96
2021/11/22 02:35:50;;;;;;;0.30;0.30;;;;;;;7.21;69.46;102383.03;4927791;29;20034;-96
2021/11/22 02:38:18;;;;;;;0.17;0.17;;;;;;;7.20;69.25;102381.25;4919409;29;20032;-96
2021/11/22 02:40:44;;;;;;;0.20;0.20;;;;;;;7.22;69.07;102390.06;4930492;29;20046;-96
2021/11/22 02:43:11;;;;;;;0.10;0.10;;;;;;;7.19;69.14;102388.28;4929439;29;20491;-96
2021/11/22 02:45:37;;;;;;;0.17;0.17;;;;;;;7.20;68.70;102391.78;4934074;29;20067;-95
2021/11/22 02:48:04;;;;;;;0.13;0.13;;;;;;;7.17;68.99;102383.84;4931460;28;20074;-96
2021/11/22 02:50:31;;;;;;;0.10;0.10;;;;;;;7.17;69.04;102384.72;4937120;29;20071;-95
2021/11/22 02:52:57;;;;;;;2.13;0.88;;;;;;;7.16;68.60;102396.09;4931599;29;20031;-95
2021/11/22 02:55:23;;;;;;;0.10;0.10;;;;;;;7.14;68.61;102392.56;4933138;29;20449;-95
2021/11/22 02:57:50;;;;;;;0.10;0.10;;;;;;;7.13;68.36;102402.22;4930569;29;20033;-96
2021/11/22 03:00:22;;;;;;;0.20;0.20;;;;;;;7.11;68.53;102401.28;4927656;29;20128;-93
2021/11/22 03:02:50;;;;;;;0.10;0.10;;;;;;;7.05;68.71;102398.56;4932218;28;20498;-94
2021/11/22 03:05:17;;;;;;;0.10;0.10;;;;;;;7.06;68.16;102415.25;4930312;29;20042;-94
2021/11/22 03:07:45;;;;;;;0.10;0.10;;;;;;;7.06;68.24;102418.75;4935093;29;20051;-96
2021/11/22 03:10:16;;;;;;;0.20;0.20;;;;;;;7.06;68.08;102418.75;4931925;29;20040;-96
2021/11/22 03:12:44;;;;;;;0.20;0.20;;;;;;;7.06;68.22;102415.25;4932184;28;20043;-93
2021/11/22 03:15:14;;;;;;;0.10;0.10;;;;;;;7.02;68.39;102424.84;4923452;29;20024;-94
2021/11/22 03:17:41;;;;;;;0.10;0.10;;;;;;;7.03;67.85;102430.97;4927838;29;20059;-95
2021/11/22 03:20:10;;;;;;;0.20;0.20;;;;;;;7.01;67.88;102433.59;4919425;29;20032;-95
2021/11/22 03:22:37;;;;;;;0.10;0.10;;;;;;;7.00;67.80;102437.06;4926823;29;20078;-95
2021/11/22 03:25:06;;;;;;;0.20;0.20;;;;;;;6.98;67.96;102433.53;4923067;29;20036;-91
2021/11/22 03:27:42;;;;;;;0.10;0.10;;;;;;;6.99;67.53;102442.31;4934439;29;20032;-95
2021/11/22 03:30:16;;;;;;;0.10;0.10;;;;;;;7.00;67.53;102444.09;4927408;29;20495;-94
2021/11/22 03:32:46;;;;;;;0.10;0.10;;;;;;;6.97;67.42;102445.81;4926143;29;20032;-95
2021/11/22 03:35:21;;;;;;;0.10;0.10;;;;;;;6.95;67.41;102449.28;4934396;29;20039;-95
2021/11/22 03:37:48;;;;;;;0.10;0.10;;;;;;;6.90;67.24;102450.94;4926543;29;20108;-93
2021/11/22 03:40:14;;;;;;;0.10;0.10;;;;;;;6.87;67.38;102446.47;4924496;29;20091;-94
2021/11/22 03:42:52;;;;;;;0.10;0.10;;;;;;;6.86;67.55;102454.38;4925290;29;20396;-95
2021/11/22 03:45:19;;;;;;;0.10;0.10;;;;;;;6.83;67.49;102454.28;4925681;29;20039;-94
2021/11/22 03:47:45;;;;;;;0.10;0.10;;;;;;;6.82;67.46;102460.41;4927781;29;20024;-93
2021/11/22 03:50:12;;;;;;;0.10;0.10;;;;;;;6.82;67.35;102460.41;4933698;29;20031;-94
2021/11/22 03:52:38;;;;;;;0.20;0.20;;;;;;;6.80;67.34;102460.38;4930030;28;20127;-93
2021/11/22 03:55:05;;;;;;;0.10;0.10;;;;;;;6.78;67.29;102473.53;4923209;29;20020;-93
2021/11/22 03:57:31;;;;;;;0.10;0.10;;;;;;;6.77;67.26;102477.00;4931633;28;20035;-95
2021/11/22 03:59:57;;;;;;;0.13;0.13;;;;;;;6.74;67.51;102476.97;4929981;29;20042;-94
2021/11/22 04:02:24;;;;;;;0.20;0.20;;;;;;;6.73;67.62;102476.91;4928303;28;20081;-95
2021/11/22 04:04:50;;;;;;;0.10;0.10;;;;;;;6.73;67.61;102487.44;4923720;29;20491;-94
2021/11/22 04:07:16;;;;;;;0.10;0.10;;;;;;;6.94;66.88;102489.66;4931401;29;20035;-96
2021/11/22 04:09:43;;;;;;;0.10;0.10;;;;;;;7.09;66.10;102494.34;4928264;29;20117;-95
2021/11/22 04:12:11;;;;;;;0.10;0.10;;;;;;;7.12;65.82;102497.06;4927477;29;20091;-94
2021/11/22 04:14:40;;;;;;;0.10;0.10;;;;;;;7.09;65.92;102495.28;4928113;29;20032;-94
2021/11/22 04:17:06;;;;;;;0.10;0.10;;;;;;;7.07;65.59;102496.97;4938952;29;20475;-95
2021/11/22 04:19:32;;;;;;;0.10;0.10;;;;;;;6.72;67.15;102506.75;4925761;28;20028;-94
2021/11/22 04:21:59;;;;;;;0.15;0.15;;;;;;;6.66;67.15;102507.50;4925376;29;20122;-95
2021/11/22 04:24:25;;;;;;;0.10;0.10;;;;;;;6.63;67.30;102510.94;4929847;29;20039;-95
2021/11/22 04:26:51;;;;;;;0.10;0.10;;;;;;;6.60;67.54;102518.78;4921979;29;20078;-94
2021/11/22 04:29:17;;;;;;;0.10;0.10;;;;;;;6.57;67.57;102526.59;4932889;29;20036;-94
2021/11/22 04:31:44;;;;;;;0.10;0.10;;;;;;;6.56;67.80;102527.44;4928270;29;20020;-94
2021/11/22 04:34:10;;;;;;;0.10;0.10;;;;;;;6.60;67.77;102521.44;4925458;29;20027;-95
2021/11/22 04:36:36;;;;;;;0.10;0.10;;;;;;;6.61;67.69;102530.19;4930565;29;20122;-94
2021/11/22 04:39:02;;;;;;;0.13;0.13;;;;;;;6.66;67.80;102530.31;4932217;29;20043;-95
2021/11/22 04:41:29;;;;;;;0.20;0.20;;;;;;;6.67;67.81;102530.34;4922481;29;20152;-95
2021/11/22 04:43:55;;;;;;;0.50;0.50;;;;;;;6.69;67.59;102541.81;4930097;29;20036;-93
2021/11/22 04:46:21;;;;;;;0.10;0.10;;;;;;;6.74;67.59;102549.81;4928824;28;20032;-95
2021/11/22 04:48:47;;;;;;;0.10;0.10;;;;;;;6.73;67.52;102550.66;4929127;29;20091;-95
2021/11/22 04:51:14;;;;;;;0.10;0.10;;;;;;;6.77;67.51;102548.13;4933947;29;20102;-95
2021/11/22 04:54:05;;;;;;;0.10;0.10;;;;;;;6.79;67.36;102548.16;4927852;29;20075;-96
2021/11/22 04:57:34;;;;;;;;;;;;;;;;;;;;;
2021/11/22 05:07:34;;;;;;;0.10;0.10;;;;;;;7.23;65.89;102555.31;4996477;23;20065;-95
2021/11/22 05:10:32;;;;;;;0.20;0.20;;;;;;;6.92;66.97;102560.78;4970012;28;20122;-95
2021/11/22 05:13:04;;;;;;;0.20;0.20;;;;;;;6.80;67.17;102569.31;4951040;29;20039;-94
2021/11/22 05:15:58;;;;;;;0.20;0.20;;;;;;;6.83;66.96;102570.22;4949430;28;20031;-95
2021/11/22 05:18:40;;;;;;;0.10;0.10;;;;;;;6.82;66.79;102573.69;4955464;29;20031;-94
2021/11/22 05:21:41;;;;;;;0.10;0.10;;;;;;;6.71;66.89;102574.34;4955076;28;20035;-95
2021/11/22 05:24:15;;;;;;;0.10;0.10;;;;;;;6.69;67.43;102577.78;4949029;29;20151;-95
2021/11/22 05:26:48;;;;;;;0.20;0.20;;;;;;;6.70;67.22;102571.66;4952546;29;20056;-95
2021/11/22 05:29:19;;;;;;;0.10;0.10;;;;;;;6.66;67.43;102581.25;4951111;29;20036;-94
2021/11/22 05:31:53;;;;;;;0.10;0.10;;;;;;;6.67;67.24;102585.66;4950752;29;20105;-93
2021/11/22 05:34:23;;;;;;;0.10;0.10;;;;;;;6.66;67.27;102589.16;4949444;28;20039;-90
2021/11/22 05:37:28;;;;;;;0.20;0.20;;;;;;;6.70;67.34;102595.38;4954005;29;20031;-94
2021/11/22 05:41:07;;;;;;;0.10;0.10;;;;;;;6.71;67.28;102592.78;4943055;29;20047;-94
2021/11/22 05:43:54;;;;;;;0.20;0.20;;;;;;;6.69;67.43;102597.13;4953517;28;20047;-94
2021/11/22 05:46:21;;;;;;;0.10;0.10;;;;;;;6.63;67.38;102604.88;4963337;28;20101;-95
2021/11/22 05:48:47;;;;;;;0.10;0.10;;;;;;;6.62;67.43;102603.97;4959540;28;20430;-95
2021/11/22 05:51:13;;;;;;;0.15;0.15;;;;;;;6.59;67.45;102609.19;4956814;28;20047;-94
2021/11/22 05:53:42;;;;;;;0.10;0.10;;;;;;;6.60;67.24;102615.34;4956658;28;20038;-94
2021/11/22 05:56:09;;;;;;;0.10;0.10;;;;;;;6.58;67.39;102607.41;4957737;28;20070;-94
2021/11/22 05:58:36;;;;;;;0.13;0.13;;;;;;;6.56;67.42;102616.13;4950300;28;20043;-93
2021/11/22 06:01:05;;;;;;;0.20;0.20;;;;;;;6.55;67.58;102616.97;4948148;28;20108;-94
2021/11/22 06:03:32;;;;;;;0.10;0.10;;;;;;;6.53;67.51;102637.09;4947732;28;20043;-94
2021/11/22 06:05:58;;;;;;;0.20;0.20;;;;;;;6.53;67.50;102634.47;4956364;28;20039;-93
2021/11/22 06:08:25;;;;;;;0.10;0.10;;;;;;;6.48;67.65;102642.25;4951932;28;20055;-94
2021/11/22 06:10:52;;;;;;;0.10;0.10;;;;;;;6.46;67.53;102644.84;4947259;28;20051;-93
2021/11/22 06:13:20;;;;;;;0.20;0.20;;;;;;;6.46;67.58;102647.47;4942521;28;20031;-91
2021/11/22 06:15:47;;;;;;;0.10;0.10;;;;;;;6.43;67.67;102650.03;4949451;28;20050;-94
2021/11/22 06:18:14;;;;;;;0.10;0.10;;;;;;;6.44;67.56;102651.81;4971074;28;20035;-94
2021/11/22 06:20:41;;;;;;;0.20;0.20;;;;;;;6.42;67.49;102648.25;4983851;28;20042;-94
2021/11/22 06:23:10;;;;;;;0.10;0.10;;;;;;;6.40;67.65;102655.19;4985451;28;20073;-95
2021/11/22 06:25:37;;;;;;;0.10;0.10;;;;;;;6.38;67.56;102658.66;4980559;28;20478;-94
2021/11/22 06:28:06;;;;;;;0.10;0.10;;;;;;;6.36;67.55;102669.16;4982542;28;20071;-95
2021/11/22 06:30:32;;;;;;;0.20;0.20;;;;;;;6.32;67.96;102670.78;4987610;28;20038;-96
2021/11/22 06:32:59;;;;;;;0.20;0.20;;;;;;;6.34;67.83;102676.09;4983642;28;20109;-94
2021/11/22 06:35:25;;;;;;;0.10;0.10;;;;;;;6.34;67.67;102670.84;4981103;28;20041;-94
2021/11/22 06:37:54;;;;;;;0.10;0.10;;;;;;;6.33;67.72;102682.25;4990367;28;20109;-95
2021/11/22 06:40:20;;;;;;;0.20;0.20;;;;;;;6.30;67.63;102685.66;4978768;28;20077;-95
2021/11/22 06:42:47;;;;;;;0.10;0.10;;;;;;;6.30;67.59;102684.78;4980373;28;20067;-95
2021/11/22 06:45:14;;;;;;;0.10;0.10;;;;;;;6.31;67.56;102686.56;4984276;28;20031;-95
2021/11/22 06:47:40;;;;;;;0.10;0.10;;;;;;;6.22;67.78;102691.56;4981686;28;20034;-94
2021/11/22 06:50:13;;;;;;;0.10;0.10;;;;;;;6.22;67.62;102702.09;4981339;28;20113;-94
2021/11/22 06:52:42;;;;;;;0.20;0.20;;;;;;;6.18;67.51;102705.50;4987955;28;20113;-94
2021/11/22 06:55:13;;;;;;;0.10;0.10;;;;;;;6.15;67.50;102712.44;4982437;28;20037;-96
2021/11/22 06:57:40;;;;;;;0.20;0.20;;;;;;;6.11;67.61;102723.72;4989395;28;20162;-91
2021/11/22 07:00:09;;;;;;;0.10;0.10;;;;;;;6.09;67.67;102725.44;4976650;28;20035;-96
2021/11/22 07:02:37;;;;;;;0.20;0.20;;;;;;;6.09;67.75;102730.72;4990189;28;20046;-93
2021/11/22 07:05:04;;;;;;;0.25;0.25;;;;;;;6.11;67.64;102736.03;4990325;28;20548;-95
2021/11/22 07:07:47;;;;;;;0.10;0.10;;;;;;;6.09;67.97;102740.34;4985547;28;20489;-94
2021/11/22 07:10:31;;;;;;;0.20;0.20;;;;;;;6.10;67.58;102739.50;4977319;28;20040;-94
2021/11/22 07:38:10;;;;;;;0.10;0.10;;;;;;;6.10;68.25;102782.47;5253671;23;20450;-93
2021/11/22 07:46:34;;;;;;;;;;;;;;;;;;;;;
2021/11/22 08:23:16;;;;;;;0.20;0.20;;;;;;;6.69;67.80;102850.03;4962177;23;20049;-93
2021/11/22 08:59:12;;;;;;;0.10;0.10;;;;;;;7.48;67.04;102882.84;4956824;28;20143;-92
2021/11/22 09:01:39;;;;;;;0.10;0.10;;;;;;;7.55;67.25;102890.06;5124103;23;20082;-87
2021/11/22 09:13:21;;;;;;;0.10;0.10;;;;;;;7.90;66.90;102896.25;5032487;23;20046;-95
2021/11/22 09:34:59;;;;;;;0.10;0.10;;;;;;;8.74;63.21;102922.78;4712229;30;20099;-92
2021/11/22 09:37:26;;;;;;;2.78;0.95;;;;;;;8.80;63.01;102931.72;4722021;30;20067;-87
2021/11/22 09:45:19;;;;;;;0.13;0.13;;;;;;;9.07;63.66;102942.88;5228489;23;20061;-90
2021/11/22 09:47:46;;;;;;;0.10;0.10;;;;;;;9.15;63.08;102950.06;5005812;28;20049;-89
2021/11/22 09:50:12;;;;;;;0.10;0.10;;;;;;;9.21;63.35;102951.06;5004630;28;20043;-90
2021/11/22 09:52:38;;;;;;;0.10;0.10;;;;;;;9.25;62.41;102957.31;5007391;28;20254;-91
2021/11/22 09:55:05;;;;;;;0.10;0.10;;;;;;;9.29;62.35;102959.16;5014475;28;20136;-91
2021/11/22 09:57:32;;;;;;;0.10;0.10;;;;;;;9.33;62.35;102958.38;5016381;28;20037;-90
2021/11/22 09:59:58;;;;;;;0.10;0.10;;;;;;;9.43;62.71;102955.88;5025094;28;20051;-90
2021/11/22 10:02:45;;;;;;;0.10;0.10;;;;;;;9.53;62.42;102963.13;5026494;28;20159;-89
2021/11/22 10:05:31;;;;;;;0.10;0.10;;;;;;;9.59;61.59;102957.94;5030394;28;20049;-88
2021/11/22 10:18:58;;;;;;;0.10;0.10;;;;;;;9.99;62.38;102956.00;5076912;27;20447;-91
2021/11/22 10:21:40;;;;;;;0.10;0.10;;;;;;;10.13;61.14;102960.59;5046386;28;20025;-83
2021/11/22 10:24:08;;;;;;;;;;;;;;;10.28;61.81;102959.97;5044090;28;20041;-89
2021/11/22 10:26:51;;;;;;;0.10;0.10;;;;;;;10.28;61.44;102955.56;5037296;28;19917;-90
2021/11/22 10:29:27;;;;;;;0.10;0.10;;;;;;;10.30;60.80;102953.81;5040632;28;20060;-86
2021/11/22 10:31:57;;;;;;;0.10;0.10;;;;;;;10.32;60.77;102951.22;5033366;28;20037;-84
2021/11/22 10:34:23;;;;;;;0.10;0.10;;;;;;;10.32;60.08;102946.78;5040865;28;20099;-86
2021/11/22 10:37:00;;;;;;;0.10;0.10;;;;;;;10.49;61.54;102948.81;5036612;28;20033;-89
2021/11/22 10:39:28;;;;;;;0.10;0.10;;;;;;;10.49;61.02;102954.13;5041170;28;20030;-87
2021/11/22 10:41:56;;;;;;;0.20;0.20;;;;;;;10.54;59.47;102948.88;5040454;28;20721;-87
2021/11/22 10:44:27;;;;;;;0.10;0.10;;;;;;;10.65;60.69;102952.56;5040393;28;20127;-88
2021/11/22 10:46:55;;;;;;;0.68;0.63;;;;;;;10.75;60.76;102949.16;5038370;28;20634;-88
2021/11/22 10:49:32;;;;;;;0.20;0.20;;;;;;;10.84;60.27;102949.31;5040521;28;20057;-86
2021/11/22 10:52:29;;;;;;;0.10;0.10;;;;;;;11.02;60.86;102944.22;5040838;28;20464;-87
2021/11/22 10:54:58;;;;;;;0.13;0.13;;;;;;;10.99;59.99;102947.69;5041310;28;20025;-85
2021/11/22 10:57:33;;;;;;;0.13;0.13;;;;;;;11.08;59.88;102946.91;5041126;28;20030;-88
2021/11/22 10:59:59;;;;;;;0.70;0.65;;;;;;;11.05;57.71;102944.25;5043241;28;20037;-85
2021/11/22 11:02:42;;;;;;;0.10;0.10;;;;;;;11.19;59.06;102942.66;5040548;28;20048;-87
2021/11/22 11:05:08;;;;;;;0.20;0.20;;;;;;;11.18;59.34;102946.16;5040523;28;20033;-85
2021/11/22 11:07:34;;;;;;;0.10;0.10;;;;;;;11.26;59.24;102949.78;5043729;28;20464;-83
2021/11/22 11:10:01;;;;;;;0.10;0.10;;;;;;;11.31;58.91;102953.41;5044353;28;20768;-96
2021/11/22 11:12:27;;;;;;;0.10;0.10;;;;;;;11.33;58.87;102954.28;5040414;28;20018;-96
2021/11/22 11:14:56;;;;;;;0.10;0.10;;;;;;;11.35;57.10;102953.41;5037623;28;20116;-93
2021/11/22 11:17:26;;;;;;;0.10;0.10;;;;;;;11.42;58.17;102949.97;5042930;28;20045;-91
2021/11/22 11:19:56;;;;;;;0.10;0.10;;;;;;;11.46;57.21;102957.06;5036737;28;20021;-92
2021/11/22 11:22:26;;;;;;;0.05;0.05;;;;;;;11.57;57.31;102960.72;5041594;28;20048;-90
2021/11/22 11:24:52;;;;;;;0.10;0.10;;;;;;;11.63;57.37;102955.47;5036490;28;20029;-92
2021/11/22 11:27:18;;;;;;;0.10;0.10;;;;;;;11.72;58.43;102957.31;5036047;28;20116;-90
2021/11/22 11:29:45;;;;;;;0.10;0.10;;;;;;;11.74;56.78;102958.22;5026369;28;20053;-89
2021/11/22 11:32:11;;;;;;;0.10;0.10;;;;;;;11.79;55.79;102958.28;5023863;28;20034;-91
2021/11/22 11:34:44;;;;;;;0.10;0.10;;;;;;;11.93;57.43;102956.63;5023423;28;20484;-91
2021/11/22 11:37:24;;;;;;;0.10;0.10;;;;;;;12.03;56.35;102954.09;5022440;28;20125;-93
2021/11/22 11:40:31;;;;;;;0.10;0.10;;;;;;;12.13;54.91;102961.25;5021905;28;20029;-89
2021/11/22 11:43:37;;;;;;;0.10;0.10;;;;;;;12.17;55.16;102963.03;5023522;28;20025;-90
2021/11/22 11:46:20;;;;;;;0.10;0.10;;;;;;;12.19;56.22;102961.28;5021987;28;20041;-91
2021/11/22 11:51:38;;;;;;;0.10;0.10;;;;;;;12.26;55.41;102965.78;5041337;27;20914;-88
2021/11/22 11:56:51;;;;;;;0.10;0.10;;;;;;;12.36;54.97;102964.06;5058766;27;20491;-91
2021/11/22 12:07:30;;;;;;;0.10;0.10;;;;;;;12.58;54.94;102954.44;5067369;28;20468;-91
2021/11/22 12:10:22;;;;;;;0.43;0.43;;;;;;;12.70;53.43;102958.06;5053002;28;20048;-90
2021/11/22 12:13:01;;;;;;;0.10;0.10;;;;;;;12.70;54.48;102958.06;5039156;28;20370;-87
2021/11/22 12:15:32;;;;;;;0.10;0.10;;;;;;;12.69;51.82;102958.94;5035354;28;20084;-92
2021/11/22 12:18:02;;;;;;;0.10;0.10;;;;;;;12.73;53.80;102960.72;5034962;28;20036;-93
2021/11/22 12:23:15;;;;;;;0.10;0.10;;;;;;;12.77;54.07;102951.88;5168978;27;20406;-83
2021/11/22 12:25:45;;;;;;;0.10;0.10;;;;;;;12.73;52.65;102960.72;5151691;27;20117;-88
2021/11/22 12:28:14;;;;;;;0.00;0.00;;;;;;;12.67;51.10;102950.06;5151719;27;20141;-88
2021/11/22 12:30:44;;;;;;;5.57;0.98;;;;;;;12.68;51.52;102949.16;5146102;27;20140;-87
2021/11/22 12:39:21;;;;;;;0.10;0.10;;;;;;;12.79;50.17;102952.78;5059080;27;20986;-90
2021/11/22 12:41:50;;;;;;;0.10;0.10;;;;;;;12.77;51.22;102949.19;5031842;28;20492;-89
2021/11/22 12:44:19;;;;;;;0.10;0.10;;;;;;;12.74;50.83;102949.19;5034746;28;20155;-91
2021/11/22 12:49:37;;;;;;;0.10;0.10;;;;;;;12.85;52.84;102952.81;5056161;27;20416;-89
2021/11/22 12:55:03;;;;;;;0.10;0.10;;;;;;;12.89;50.36;102949.25;5079907;27;20482;-88
2021/11/22 13:00:22;;;;;;;0.10;0.10;;;;;;;12.90;49.29;102950.16;5102351;27;20407;-88
2021/11/22 13:02:54;;;;;;;0.10;0.10;;;;;;;12.93;51.15;102956.38;5089768;28;20035;-86
2021/11/22 13:11:28;;;;;;;0.10;0.10;;;;;;;13.13;52.46;102958.22;5059988;28;20432;-87
2021/11/22 13:13:58;;;;;;;;;;;;;;;13.21;53.14;102966.25;5046625;28;20021;-86
2021/11/22 13:16:27;;;;;;;0.10;0.10;;;;;;;13.12;53.09;102961.75;5045096;28;19917;-87
2021/11/22 13:18:59;;;;;;;1.15;0.90;;;;;;;13.14;51.53;102960.00;5036460;28;20029;-87
2021/11/22 13:24:08;;;;;;;0.10;0.10;;;;;;;13.14;50.32;102969.78;5105175;27;20400;-88
2021/11/22 13:26:35;;;;;;;0.10;0.10;;;;;;;13.19;53.11;102978.66;5106500;28;20170;-90
2021/11/22 13:29:21;;;;;;;0.10;0.10;;;;;;;13.19;52.62;102978.66;5104485;28;20028;-89
2021/11/22 13:31:50;;;;;;;0.10;0.10;;;;;;;13.22;52.97;102974.22;5099565;28;20027;-90
2021/11/22 13:34:19;;;;;;;0.10;0.10;;;;;;;13.25;52.64;102989.31;5103964;28;20128;-91
2021/11/22 13:36:50;;;;;;;0.10;0.10;;;;;;;13.26;52.64;102984.00;5102598;28;20028;-90
2021/11/22 13:39:28;;;;;;;0.20;0.20;;;;;;;13.23;49.03;102983.09;5103455;28;20113;-88
2021/11/22 13:42:02;;;;;;;0.10;0.10;;;;;;;13.25;48.72;102982.22;5096831;28;20526;-87
2021/11/22 13:44:31;;;;;;;0.10;0.10;;;;;;;13.19;48.61;102978.66;5096099;28;20030;-88
2021/11/22 13:47:03;;;;;;;0.10;0.10;;;;;;;13.24;52.38;102987.53;5095931;28;20024;-85
2021/11/22 13:49:29;;;;;;;0.13;0.13;;;;;;;13.23;49.40;102983.09;5099217;28;20055;-92
2021/11/22 13:51:55;;;;;;;0.10;0.10;;;;;;;13.26;51.76;102986.66;5096215;28;20028;-92
2021/11/22 13:54:24;;;;;;;0.10;0.10;;;;;;;13.23;49.75;102989.31;5093645;28;20032;-92
2021/11/22 13:56:57;;;;;;;0.10;0.10;;;;;;;13.19;51.60;102989.31;5094144;28;20417;-93
2021/11/22 13:59:27;;;;;;;0.10;0.10;;;;;;;13.06;51.37;102989.25;5097341;28;20032;-89
2021/11/22 14:01:59;;;;;;;0.10;0.10;;;;;;;12.90;51.06;102993.59;5095429;28;20067;-89
2021/11/22 14:04:29;;;;;;;0.10;0.10;;;;;;;12.79;50.97;102996.22;5100693;28;20028;-92
2021/11/22 14:06:55;;;;;;;0.10;0.10;;;;;;;12.79;52.32;102995.34;5101790;28;20074;-87
2021/11/22 14:09:23;;;;;;;0.10;0.10;;;;;;;12.80;52.64;102997.13;5104454;28;20028;-87
2021/11/22 14:11:53;;;;;;;0.10;0.10;;;;;;;12.79;53.25;102998.00;5106512;28;20031;-88
2021/11/22 14:14:22;;;;;;;0.10;0.10;;;;;;;12.78;51.83;102994.47;5104112;28;20052;-88
2021/11/22 14:16:51;;;;;;;0.20;0.20;;;;;;;12.79;52.81;102993.53;5104040;28;20070;-82
2021/11/22 14:19:18;;;;;;;0.20;0.20;;;;;;;12.77;52.71;102997.09;5094837;28;20051;-85
2021/11/22 14:21:45;;;;;;;0.10;0.10;;;;;;;12.74;53.15;102997.09;5092605;28;20032;-85
2021/11/22 14:24:16;;;;;;;7.45;1.85;;;;;;;12.73;53.39;102995.31;5094423;28;20102;-84
2021/11/22 14:26:47;;;;;;;0.10;0.10;;;;;;;12.72;53.90;103001.50;5089176;28;20486;-85
2021/11/22 14:31:57;;;;;;;1.10;1.08;;;;;;;12.67;54.04;103020.06;5055918;28;21055;-88
2021/11/22 14:34:25;;;;;;;0.60;0.60;;;;;;;12.62;53.80;103008.53;5054890;28;20033;-87
2021/11/22 14:36:54;;;;;;;2.10;1.27;;;;;;;12.58;54.17;103007.59;5054813;28;20032;-91
2021/11/22 14:39:37;;;;;;;0.25;0.25;;;;;;;12.58;54.27;103007.59;5053671;28;20025;-82
2021/11/22 14:42:11;;;;;;;0.10;0.10;;;;;;;12.51;53.81;103016.47;5053621;28;20030;-84
2021/11/22 14:44:52;;;;;;;0.52;0.52;;;;;;;12.48;54.56;103015.53;5062259;28;20541;-83
2021/11/22 14:47:38;;;;;;;0.10;0.10;;;;;;;12.39;54.90;103011.94;5061083;28;20094;-84
2021/11/22 14:50:22;;;;;;;0.10;0.10;;;;;;;12.29;55.22;103005.66;5054833;28;20107;-83
2021/11/22 14:53:13;;;;;;;0.10;0.10;;;;;;;12.20;55.46;103010.91;5056098;28;20029;-82
2021/11/22 14:55:40;;;;;;;0.10;0.10;;;;;;;12.06;55.21;103017.84;5057472;28;20055;-84
2021/11/22 14:58:07;;;;;;;0.10;0.10;;;;;;;11.98;55.32;103018.66;5049407;28;20021;-82
2021/11/22 15:03:29;;;;;;;0.10;0.10;;;;;;;11.85;55.67;103021.19;5070160;28;20928;-83
2021/11/22 15:05:57;;;;;;;;;;;;;;;11.80;55.62;103018.47;5061708;28;20025;-84